Milligan, NE (68406)

6:48 PM CDT on April 28, 2017 (GMT -0500)
Burress | | Change Station

Elev 1624 ft 40.60 °N, 97.50 °W | Updated 24 seconds ago

Overcast
Overcast
39.2 °F
Feels Like 34 °F
N
6.5
Wind Variable Wind from East
Gusts 7.6 mph

Today
High -- | Low -- °F
--% Chance of Precip.
Yesterday
High -- | Low -- °F
Precip. -- in
Pressure 29.90 in
Visibility 10.0 miles
Clouds Overcast 1200 ft
Windchill 34 °F
Dew Point 39 °F
Humidity 99%
Rainfall 0.65 in
Snow Depth Not available.
6:32 AM 8:22 PM
Waxing Crescent, 9% visible
METAR KHJH 282335Z AUTO 03013KT 10SM OVC012 05/05 A2990 RMK AO2 T00500045
Pressure 29.90 in
Visibility 10.0 miles
Clouds Overcast 1200 ft
Windchill 34 °F
Dew Point 39 °F
Humidity 99%
Rainfall 0.65 in
Snow Depth Not available.
6:32 AM 8:22 PM
Waxing Crescent, 9% visible
METAR KHJH 282335Z AUTO 03013KT 10SM OVC012 05/05 A2990 RMK AO2 T00500045

Get Severe Weather Alerts

Thanks for signing up!

Be on the lookout for a verification email in your inbox.

You'll start receiving the daily forecast at 8 AM.

×

10-Day Weather Forecast

Almanac

Astronomy

Apr. 28, 2017 Rise Set
Actual Time
Civil Twilight
Nautical Twilight
Astronomical Twilight
Moon
Length of Visible Light
Length of Day
Tomorrow will be .
, % of the Moon is Illuminated

Today's Extremes

State Highs State Lows

Community

WunderPhotos

WunderBlog® & News

Nearby

Air Quality

  Air Quality AQ Index Pollutant
Not available.

Snow Depth

Station Depth Elevation

Earthquake Activity

City Distance Mag. Time & Date
Minimum magnitude displayed is 2.5.

Coastal Water Temperatures

Place Temperature

Stations

Nearby Weather Stations

Station Location Temp. Windchill Dew Point Humidity Wind Precip. Elev Updated Type
                   

Watches & Warnings

There are currently no watches in effect.